Time,TemperatureF,DewpointF,PressureIn,WindDirection,WindDirectionDegrees,WindSpeedMPH,WindSpeedGustMPH,Humidity,HourlyPrecipIn,Conditions,Clouds,dailyrainin,SolarRadiationWatts/m^2,SoftwareType,DateUTC
2013-03-08 00:02:00,33.6,33.0,30.06,WNW,294,5.0,-999.0,97,-99.99,,,0.06,0,weatherlink.com 1.10,2013-03-08 05:02:00,
2013-03-08 00:17:00,33.4,33.0,30.06,NNW,333,3.0,-999.0,97,-99.99,,,0.06,0,weatherlink.com 1.10,2013-03-08 05:17:00,
2013-03-08 00:32:00,33.1,32.0,30.06,NNW,348,2.0,-999.0,96,-99.99,,,0.06,0,weatherlink.com 1.10,2013-03-08 05:32:00,
2013-03-08 00:47:00,33.0,32.0,30.07,NW,307,2.0,-999.0,97,-99.99,,,0.06,0,weatherlink.com 1.10,2013-03-08 05:47:00,
2013-03-08 01:02:00,32.9,32.0,30.06,WNW,296,1.0,-999.0,97,-99.99,,,0.06,0,weatherlink.com 1.10,2013-03-08 06:02:00,
2013-03-08 01:33:00,32.8,32.0,30.05,NW,305,2.0,-999.0,97,-99.99,,,0.06,0,weatherlink.com 1.10,2013-03-08 06:33:00,
2013-03-08 01:48:00,32.8,32.0,30.05,NW,309,1.0,-999.0,97,-99.99,,,0.06,0,weatherlink.com 1.10,2013-03-08 06:48:00,
2013-03-08 02:03:00,32.7,32.0,30.05,West,279,4.0,-999.0,97,-99.99,,,0.00,0,weatherlink.com 1.10,2013-03-08 07:03:00,
2013-03-08 02:18:00,32.5,32.0,30.05,NW,306,2.0,-999.0,97,-99.99,,,0.00,0,weatherlink.com 1.10,2013-03-08 07:18:00,
2013-03-08 02:33:00,32.5,32.0,30.04,NNW,343,0.0,-999.0,97,-99.99,,,0.00,0,weatherlink.com 1.10,2013-03-08 07:33:00,
2013-03-08 02:48:00,32.5,32.0,30.03,NNW,343,0.0,-999.0,97,-99.99,,,0.00,0,weatherlink.com 1.10,2013-03-08 07:48:00,
2013-03-08 03:03:00,32.4,32.0,30.03,NNW,333,2.0,-999.0,97,-99.99,,,0.00,0,weatherlink.com 1.10,2013-03-08 08:03:00,
2013-03-08 03:18:00,32.2,32.0,30.02,WNW,298,1.0,-999.0,97,-99.99,,,0.00,0,weatherlink.com 1.10,2013-03-08 08:18:00,
2013-03-08 03:33:00,32.2,32.0,30.03,West,279,0.0,-999.0,97,-99.99,,,0.00,0,weatherlink.com 1.10,2013-03-08 08:33:00,
2013-03-08 03:48:00,32.2,32.0,30.02,West,281,1.0,-999.0,97,-99.99,,,0.00,0,weatherlink.com 1.10,2013-03-08 08:48:00,
2013-03-08 04:03:00,32.1,31.0,30.02,NNW,342,4.0,-999.0,97,-99.99,,,0.00,0,weatherlink.com 1.10,2013-03-08 09:03:00,
2013-03-08 04:18:00,32.0,31.0,30.02,WNW,286,2.0,-999.0,97,-99.99,,,0.00,0,weatherlink.com 1.10,2013-03-08 09:18:00,
2013-03-08 04:33:00,31.8,31.0,30.02,West,278,3.0,-999.0,97,-99.99,,,0.00,0,weatherlink.com 1.10,2013-03-08 09:33:00,
2013-03-08 04:48:00,31.5,31.0,30.02,NNW,347,1.0,-999.0,97,-99.99,,,0.00,0,weatherlink.com 1.10,2013-03-08 09:48:00,
2013-03-08 05:03:00,31.4,31.0,30.02,WNW,285,2.0,-999.0,97,-99.99,,,0.00,0,weatherlink.com 1.10,2013-03-08 10:03:00,
2013-03-08 05:18:00,31.4,31.0,30.02,North,355,2.0,-999.0,97,-99.99,,,0.00,0,weatherlink.com 1.10,2013-03-08 10:18:00,
2013-03-08 05:33:00,31.2,31.0,30.02,NW,311,1.0,-999.0,97,-99.99,,,0.00,0,weatherlink.com 1.10,2013-03-08 10:33:00,
2013-03-08 05:48:00,31.2,31.0,30.02,West,276,2.0,-999.0,97,-99.99,,,0.00,0,weatherlink.com 1.10,2013-03-08 10:48:00,
2013-03-08 06:03:00,31.1,30.0,30.01,West,281,3.0,-999.0,97,-99.99,,,0.00,0,weatherlink.com 1.10,2013-03-08 11:03:00,
2013-03-08 06:18:00,31.1,30.0,30.02,North,360,0.0,-999.0,97,-99.99,,,0.00,0,weatherlink.com 1.10,2013-03-08 11:18:00,
2013-03-08 06:33:00,31.1,30.0,30.02,NNW,347,0.0,-999.0,97,-99.99,,,0.00,0,weatherlink.com 1.10,2013-03-08 11:33:00,
2013-03-08 06:48:00,31.0,30.0,30.02,West,278,0.0,-999.0,97,-99.99,,,0.00,0,weatherlink.com 1.10,2013-03-08 11:48:00,
2013-03-08 07:03:00,31.0,30.0,30.02,WNW,282,2.0,-999.0,97,-99.99,,,0.00,0,weatherlink.com 1.10,2013-03-08 12:03:00,
2013-03-08 07:18:00,31.0,30.0,30.02,NW,309,2.0,-999.0,97,-99.99,,,0.00,9,weatherlink.com 1.10,2013-03-08 12:18:00,
2013-03-08 07:33:00,31.1,30.0,30.02,WNW,296,0.0,-999.0,97,-99.99,,,0.00,11,weatherlink.com 1.10,2013-03-08 12:33:00,
2013-03-08 07:48:00,31.0,30.0,30.02,NNW,348,0.0,-999.0,97,-99.99,,,0.00,12,weatherlink.com 1.10,2013-03-08 12:48:00,
2013-03-08 08:03:00,31.0,31.0,30.03,North,350,0.0,-999.0,98,-99.99,,,0.00,12,weatherlink.com 1.10,2013-03-08 13:03:00,
2013-03-08 08:18:00,31.1,31.0,30.03,NNW,337,1.0,-999.0,98,-99.99,,,0.00,18,weatherlink.com 1.10,2013-03-08 13:18:00,
2013-03-08 08:33:00,31.1,30.0,30.03,WNW,283,2.0,-999.0,97,-99.99,,,0.00,25,weatherlink.com 1.10,2013-03-08 13:33:00,
2013-03-08 08:48:00,31.2,31.0,30.03,WNW,287,0.0,-999.0,97,-99.99,,,0.00,26,weatherlink.com 1.10,2013-03-08 13:48:00,
2013-03-08 09:03:00,31.2,31.0,30.03,West,279,3.0,-999.0,97,-99.99,,,0.00,33,weatherlink.com 1.10,2013-03-08 14:03:00,
2013-03-08 09:18:00,31.4,31.0,30.03,WNW,283,2.0,-999.0,97,-99.99,,,0.01,30,weatherlink.com 1.10,2013-03-08 14:18:00,
2013-03-08 09:33:00,31.5,31.0,30.04,NW,319,2.0,-999.0,97,-99.99,,,0.01,30,weatherlink.com 1.10,2013-03-08 14:33:00,
2013-03-08 09:48:00,31.7,31.0,30.04,NW,322,1.0,-999.0,97,-99.99,,,0.01,33,weatherlink.com 1.10,2013-03-08 14:48:00,
2013-03-08 10:03:00,31.8,31.0,30.04,WNW,282,2.0,-999.0,97,-99.99,,,0.01,40,weatherlink.com 1.10,2013-03-08 15:03:00,
2013-03-08 10:18:00,32.0,31.0,30.04,NNW,348,2.0,-999.0,97,-99.99,,,0.02,40,weatherlink.com 1.10,2013-03-08 15:18:00,
2013-03-08 10:33:00,32.2,32.0,30.05,NW,324,1.0,-999.0,97,-99.99,,,0.02,178,weatherlink.com 1.10,2013-03-08 15:33:00,
2013-03-08 10:48:00,32.5,32.0,30.05,NNW,327,2.0,-999.0,97,-99.99,,,0.03,200,weatherlink.com 1.10,2013-03-08 15:48:00,
2013-03-08 11:04:00,32.5,32.0,30.05,NW,320,3.0,-999.0,97,-99.99,,,0.03,188,weatherlink.com 1.10,2013-03-08 16:04:00,
2013-03-08 11:19:00,32.6,32.0,30.05,NNW,329,2.0,-999.0,97,-99.99,,,0.04,200,weatherlink.com 1.10,2013-03-08 16:19:00,
2013-03-08 11:34:00,32.6,32.0,30.05,North,350,1.0,-999.0,97,-99.99,,,0.05,188,weatherlink.com 1.10,2013-03-08 16:34:00,
2013-03-08 11:49:00,32.6,32.0,30.06,WNW,288,1.0,-999.0,97,-99.99,,,0.06,185,weatherlink.com 1.10,2013-03-08 16:49:00,
2013-03-08 12:04:00,32.6,32.0,30.06,North,355,4.0,-999.0,97,-99.99,,,0.07,176,weatherlink.com 1.10,2013-03-08 17:04:00,
2013-03-08 12:19:00,32.6,32.0,30.05,WNW,283,6.0,-999.0,97,-99.99,,,0.08,149,weatherlink.com 1.10,2013-03-08 17:19:00,
2013-03-08 12:34:00,32.7,32.0,30.05,NNW,346,2.0,-999.0,97,-99.99,,,0.08,120,weatherlink.com 1.10,2013-03-08 17:34:00,
2013-03-08 12:49:00,32.7,32.0,30.05,North,350,4.0,-999.0,97,-99.99,,,0.09,188,weatherlink.com 1.10,2013-03-08 17:49:00,
2013-03-08 13:04:00,33.0,32.0,30.05,NNW,333,1.0,-999.0,97,-99.99,,,0.10,213,weatherlink.com 1.10,2013-03-08 18:04:00,
2013-03-08 13:19:00,33.1,32.0,30.05,NNW,344,3.0,-999.0,97,-99.99,,,0.12,165,weatherlink.com 1.10,2013-03-08 18:19:00,
2013-03-08 13:34:00,33.2,33.0,30.05,North,355,1.0,-999.0,97,-99.99,,,0.12,197,weatherlink.com 1.10,2013-03-08 18:34:00,
2013-03-08 13:49:00,33.4,33.0,30.05,NNW,331,3.0,-999.0,97,-99.99,,,0.13,248,weatherlink.com 1.10,2013-03-08 18:49:00,
2013-03-08 14:04:00,33.9,33.0,30.05,North,355,1.0,-999.0,97,-99.99,,,0.14,246,weatherlink.com 1.10,2013-03-08 19:04:00,
2013-03-08 14:19:00,34.2,34.0,30.05,NNW,331,4.0,-999.0,97,-99.99,,,0.15,229,weatherlink.com 1.10,2013-03-08 19:19:00,
2013-03-08 14:34:00,34.2,34.0,30.05,North,355,4.0,-999.0,97,-99.99,,,0.16,179,weatherlink.com 1.10,2013-03-08 19:34:00,
2013-03-08 14:49:00,34.2,34.0,30.06,WNW,296,1.0,-999.0,97,-99.99,,,0.17,158,weatherlink.com 1.10,2013-03-08 19:49:00,
2013-03-08 15:04:00,34.3,34.0,30.06,NNW,339,4.0,-999.0,97,-99.99,,,0.18,160,weatherlink.com 1.10,2013-03-08 20:04:00,
2013-03-08 15:19:00,34.7,34.0,30.06,North,360,2.0,-999.0,97,-99.99,,,0.19,192,weatherlink.com 1.10,2013-03-08 20:19:00,
2013-03-08 15:34:00,35.0,34.0,30.06,NNW,340,2.0,-999.0,97,-99.99,,,0.19,125,weatherlink.com 1.10,2013-03-08 20:34:00,
2013-03-08 15:49:00,35.1,34.0,30.07,NNW,338,7.0,-999.0,96,-99.99,,,0.20,97,weatherlink.com 1.10,2013-03-08 20:49:00,
2013-03-08 16:04:00,35.1,34.0,30.07,NNW,337,2.0,-999.0,96,-99.99,,,0.20,130,weatherlink.com 1.10,2013-03-08 21:04:00,
2013-03-08 16:19:00,35.5,35.0,30.08,North,355,2.0,-999.0,97,-99.99,,,0.20,100,weatherlink.com 1.10,2013-03-08 21:19:00,
2013-03-08 16:34:00,35.9,35.0,30.08,North,355,2.0,-999.0,96,-99.99,,,0.21,93,weatherlink.com 1.10,2013-03-08 21:34:00,
2013-03-08 16:49:00,36.2,35.0,30.09,NNW,336,4.0,-999.0,96,-99.99,,,0.21,70,weatherlink.com 1.10,2013-03-08 21:49:00,
2013-03-08 17:04:00,36.2,35.0,30.09,NNW,338,1.0,-999.0,96,-99.99,,,0.22,54,weatherlink.com 1.10,2013-03-08 22:04:00,
2013-03-08 17:19:00,36.4,35.0,30.10,NNW,338,3.0,-999.0,96,-99.99,,,0.22,23,weatherlink.com 1.10,2013-03-08 22:19:00,
2013-03-08 17:34:00,36.6,35.0,30.10,North,355,1.0,-999.0,95,-99.99,,,0.22,9,weatherlink.com 1.10,2013-03-08 22:34:00,
2013-03-08 17:49:00,36.7,35.0,30.11,North,355,1.0,-999.0,95,-99.99,,,0.22,0,weatherlink.com 1.10,2013-03-08 22:49:00,
2013-03-08 18:04:00,36.9,35.0,30.11,North,355,2.0,-999.0,94,-99.99,,,0.22,0,weatherlink.com 1.10,2013-03-08 23:04:00,
2013-03-08 18:19:00,37.3,36.0,30.12,North,355,0.0,-999.0,93,-99.99,,,0.23,0,weatherlink.com 1.10,2013-03-08 23:19:00,
2013-03-08 18:34:00,37.5,36.0,30.13,North,355,1.0,-999.0,93,-99.99,,,0.23,0,weatherlink.com 1.10,2013-03-08 23:34:00,
2013-03-08 18:49:00,38.1,36.0,30.13,WNW,287,0.0,-999.0,92,-99.99,,,0.23,0,weatherlink.com 1.10,2013-03-08 23:49:00,
2013-03-08 19:04:00,38.9,36.0,30.14,NNE,13,1.0,-999.0,89,-99.99,,,0.23,0,weatherlink.com 1.10,2013-03-09 00:04:00,
2013-03-08 19:20:00,39.5,36.0,30.15,North,360,2.0,-999.0,86,-99.99,,,0.23,0,weatherlink.com 1.10,2013-03-09 00:20:00,
2013-03-08 19:35:00,40.2,35.0,30.15,North,5,4.0,-999.0,81,-99.99,,,0.24,0,weatherlink.com 1.10,2013-03-09 00:35:00,
2013-03-08 19:50:00,40.5,34.0,30.15,NNE,13,5.0,-999.0,79,-99.99,,,0.24,0,weatherlink.com 1.10,2013-03-09 00:50:00,
2013-03-08 20:05:00,40.5,34.0,30.16,NNE,17,2.0,-999.0,79,-99.99,,,0.24,0,weatherlink.com 1.10,2013-03-09 01:05:00,
2013-03-08 20:20:00,41.1,35.0,30.16,NNE,14,4.0,-999.0,79,-99.99,,,0.24,0,weatherlink.com 1.10,2013-03-09 01:20:00,
2013-03-08 20:35:00,41.2,35.0,30.16,NNE,17,4.0,-999.0,79,-99.99,,,0.24,0,weatherlink.com 1.10,2013-03-09 01:35:00,
2013-03-08 20:50:00,41.1,35.0,30.17,North,5,3.0,-999.0,80,-99.99,,,0.24,0,weatherlink.com 1.10,2013-03-09 01:50:00,
2013-03-08 21:05:00,40.9,35.0,30.17,NW,325,5.0,-999.0,79,-99.99,,,0.24,0,weatherlink.com 1.10,2013-03-09 02:05:00,
2013-03-08 21:20:00,40.7,35.0,30.17,NNW,333,2.0,-999.0,79,-99.99,,,0.24,0,weatherlink.com 1.10,2013-03-09 02:20:00,
2013-03-08 21:35:00,40.6,34.0,30.17,NNW,346,5.0,-999.0,78,-99.99,,,0.24,0,weatherlink.com 1.10,2013-03-09 02:35:00,
2013-03-08 21:50:00,40.4,34.0,30.18,NNW,348,3.0,-999.0,77,-99.99,,,0.24,0,weatherlink.com 1.10,2013-03-09 02:50:00,
2013-03-08 22:05:00,40.2,34.0,30.18,North,5,2.0,-999.0,77,-99.99,,,0.25,0,weatherlink.com 1.10,2013-03-09 03:05:00,
2013-03-08 22:20:00,40.0,33.0,30.18,NW,306,5.0,-999.0,76,-99.99,,,0.25,0,weatherlink.com 1.10,2013-03-09 03:20:00,
2013-03-08 22:35:00,39.9,33.0,30.18,NW,325,4.0,-999.0,75,-99.99,,,0.25,0,weatherlink.com 1.10,2013-03-09 03:35:00,
2013-03-08 22:50:00,39.6,32.0,30.18,NNW,340,1.0,-999.0,75,-99.99,,,0.25,0,weatherlink.com 1.10,2013-03-09 03:50:00,
2013-03-08 23:05:00,39.6,32.0,30.18,North,355,5.0,-999.0,73,-99.99,,,0.25,0,weatherlink.com 1.10,2013-03-09 04:05:00,
2013-03-08 23:20:00,39.4,31.0,30.19,NNW,347,4.0,-999.0,72,-99.99,,,0.25,0,weatherlink.com 1.10,2013-03-09 04:20:00,
2013-03-08 23:35:00,39.2,31.0,30.19,NNW,348,0.0,-999.0,72,-99.99,,,0.25,0,weatherlink.com 1.10,2013-03-09 04:35:00,
2013-03-08 23:50:00,38.9,31.0,30.19,NW,315,2.0,-999.0,72,-99.99,,,0.25,0,weatherlink.com 1.10,2013-03-09 04:50:00,